createdAt,value
2022-12-22T00:01:57.932Z,8.31
2022-12-22T00:04:43.329Z,8.40
2022-12-22T00:07:28.451Z,8.61
2022-12-22T00:10:13.308Z,8.56
2022-12-22T00:12:58.539Z,8.52
2022-12-22T00:15:43.803Z,8.36
2022-12-22T00:18:34.621Z,8.60
2022-12-22T00:21:20.118Z,8.42
2022-12-22T00:24:05.295Z,8.00
2022-12-22T00:26:52.575Z,8.05
2022-12-22T00:29:37.975Z,8.12
2022-12-22T00:32:23.936Z,8.45
2022-12-22T00:35:09.816Z,8.29
2022-12-22T00:37:56.376Z,8.35
2022-12-22T00:40:45.344Z,7.89
2022-12-22T00:43:30.771Z,8.09
2022-12-22T00:46:17.431Z,7.92
2022-12-22T00:49:03.113Z,7.87
2022-12-22T00:51:49.473Z,8.10
2022-12-22T00:54:37.528Z,7.83
2022-12-22T00:57:23.871Z,8.17
2022-12-22T01:00:09.984Z,8.05
2022-12-22T01:02:55.009Z,7.80
2022-12-22T01:05:40.272Z,7.62
2022-12-22T01:08:28.021Z,8.18
2022-12-22T01:11:12.873Z,8.12
2022-12-22T01:13:57.856Z,7.99
2022-12-22T01:16:42.766Z,8.14
2022-12-22T01:19:27.974Z,8.09
2022-12-22T01:22:13.388Z,7.97
2022-12-22T01:24:58.265Z,8.23
2022-12-22T01:27:43.400Z,7.86
2022-12-22T01:30:29.196Z,8.16
2022-12-22T01:33:14.759Z,8.18
2022-12-22T01:35:59.913Z,8.24
2022-12-22T01:38:44.798Z,8.02
2022-12-22T01:41:37.253Z,8.23
2022-12-22T01:44:32.148Z,8.02
2022-12-22T01:47:48.287Z,8.19
2022-12-22T01:50:55.110Z,8.32
2022-12-22T01:53:43.755Z,7.60
2022-12-22T01:56:29.625Z,8.18
2022-12-22T01:59:18.005Z,8.42
2022-12-22T02:02:03.553Z,8.26
2022-12-22T02:04:54.998Z,8.06
2022-12-22T02:07:40.023Z,8.33
2022-12-22T02:10:40.634Z,8.27
2022-12-22T02:13:43.058Z,7.96
2022-12-22T02:16:45.715Z,8.28
2022-12-22T02:20:00.132Z,8.36
2022-12-22T02:22:58.017Z,7.82
2022-12-22T02:25:50.686Z,8.39
2022-12-22T02:28:36.200Z,8.30
2022-12-22T02:31:21.067Z,8.46
2022-12-22T02:34:06.176Z,8.45
2022-12-22T02:36:58.005Z,8.33
2022-12-22T02:40:12.809Z,8.55
2022-12-22T02:43:28.575Z,8.36
2022-12-22T02:46:31.115Z,8.29
2022-12-22T02:49:23.249Z,7.98
2022-12-22T02:52:16.663Z,8.00
2022-12-22T02:55:03.632Z,8.46
2022-12-22T02:57:49.027Z,8.43
2022-12-22T03:00:34.342Z,8.48
2022-12-22T03:03:19.920Z,8.47
2022-12-22T03:06:05.052Z,8.43
2022-12-22T03:08:50.322Z,8.51
2022-12-22T03:11:35.595Z,7.83
2022-12-22T03:14:20.448Z,8.28
2022-12-22T03:17:05.483Z,8.40
2022-12-22T03:19:50.345Z,8.36
2022-12-22T03:22:35.352Z,8.49
2022-12-22T03:25:20.298Z,8.38
2022-12-22T03:27:46.813Z,8.38
2022-12-22T03:30:13.499Z,8.08
2022-12-22T03:32:42.009Z,8.51
2022-12-22T03:35:08.780Z,8.19
2022-12-22T03:37:35.261Z,8.36
2022-12-22T03:40:01.832Z,8.43
2022-12-22T03:42:46.995Z,8.29
2022-12-22T03:45:31.939Z,8.27
2022-12-22T03:47:58.424Z,8.25
2022-12-22T03:50:24.899Z,8.18
2022-12-22T03:52:51.374Z,8.12
2022-12-22T03:55:17.885Z,8.39
2022-12-22T03:57:44.354Z,8.37
2022-12-22T04:00:11.340Z,8.35
2022-12-22T04:02:37.856Z,8.23
2022-12-22T04:05:04.793Z,8.39
2022-12-22T04:07:31.260Z,8.22
2022-12-22T04:10:16.866Z,8.02
2022-12-22T04:12:55.256Z,8.46
2022-12-22T04:15:32.392Z,8.49
2022-12-22T04:18:00.131Z,8.43
2022-12-22T04:20:27.741Z,8.21
2022-12-22T04:22:55.423Z,8.35
2022-12-22T04:25:22.749Z,8.54
2022-12-22T04:27:49.210Z,8.51
2022-12-22T04:30:16.203Z,8.65
2022-12-22T04:32:42.970Z,8.65
2022-12-22T04:35:10.889Z,8.56
2022-12-22T04:37:37.685Z,8.61
2022-12-22T04:40:04.589Z,8.57
2022-12-22T04:42:31.094Z,8.61
2022-12-22T04:44:57.530Z,8.63
2022-12-22T04:47:24.004Z,8.50
2022-12-22T04:49:50.493Z,8.44
2022-12-22T04:52:16.987Z,8.47
2022-12-22T04:54:43.508Z,8.54
2022-12-22T04:57:09.963Z,8.59
2022-12-22T04:59:36.507Z,8.61
2022-12-22T05:02:03.169Z,8.56
2022-12-22T05:04:29.743Z,8.36
2022-12-22T05:06:56.313Z,8.36
2022-12-22T05:09:22.794Z,8.73
2022-12-22T05:11:49.340Z,8.83
2022-12-22T05:14:15.847Z,8.79
2022-12-22T05:16:42.457Z,8.45
2022-12-22T05:19:09.007Z,8.42
2022-12-22T05:21:35.517Z,8.69
2022-12-22T05:24:01.966Z,8.72
2022-12-22T05:26:28.618Z,8.39
2022-12-22T05:28:55.158Z,8.67
2022-12-22T05:31:23.793Z,8.74
2022-12-22T05:33:50.899Z,8.76
2022-12-22T05:36:18.020Z,8.65
2022-12-22T05:38:44.948Z,8.43
2022-12-22T05:41:11.534Z,8.65
2022-12-22T05:43:38.040Z,8.73
2022-12-22T05:46:06.914Z,8.76
2022-12-22T05:48:38.576Z,8.61
2022-12-22T05:51:06.582Z,8.77
2022-12-22T05:53:33.084Z,8.42
2022-12-22T05:55:59.624Z,8.74
2022-12-22T05:58:26.286Z,8.63
2022-12-22T06:00:57.231Z,8.67
2022-12-22T06:03:24.708Z,8.61
2022-12-22T06:05:51.313Z,8.60
2022-12-22T06:08:17.830Z,8.75
2022-12-22T06:10:44.312Z,8.60
2022-12-22T06:13:10.886Z,8.62
2022-12-22T06:15:37.388Z,8.78
2022-12-22T06:18:04.126Z,8.61
2022-12-22T06:20:30.740Z,8.65
2022-12-22T06:22:57.202Z,8.53
2022-12-22T06:25:23.711Z,8.49
2022-12-22T06:27:50.194Z,8.64
2022-12-22T06:30:17.187Z,8.76
2022-12-22T06:32:43.982Z,8.52
2022-12-22T06:35:10.783Z,8.47
2022-12-22T06:37:37.397Z,8.53
2022-12-22T06:40:04.586Z,8.63
2022-12-22T06:42:49.603Z,8.51
2022-12-22T06:45:16.252Z,8.56
2022-12-22T06:47:42.793Z,8.78
2022-12-22T06:50:09.729Z,8.85
2022-12-22T06:52:36.242Z,8.93
2022-12-22T06:55:03.193Z,8.64
2022-12-22T06:57:29.822Z,8.95
2022-12-22T06:59:57.761Z,8.81
2022-12-22T07:02:25.006Z,8.84
2022-12-22T07:04:51.704Z,8.96
2022-12-22T07:07:18.234Z,8.38
2022-12-22T07:09:44.777Z,8.62
2022-12-22T07:12:11.268Z,8.92
2022-12-22T07:14:37.751Z,8.94
2022-12-22T07:17:04.300Z,8.71
2022-12-22T07:19:30.798Z,8.96
2022-12-22T07:21:57.442Z,8.81
2022-12-22T07:24:26.085Z,8.98
2022-12-22T07:26:53.072Z,8.88
2022-12-22T07:29:19.573Z,8.79
2022-12-22T07:31:46.539Z,9.06
2022-12-22T07:34:13.823Z,9.07
2022-12-22T07:36:40.453Z,8.89
2022-12-22T07:39:08.393Z,9.03
2022-12-22T07:41:53.373Z,9.02
2022-12-22T07:44:19.834Z,8.95
2022-12-22T07:46:46.522Z,8.88
2022-12-22T07:49:31.525Z,8.81
2022-12-22T07:51:58.221Z,8.05
2022-12-22T07:54:25.498Z,8.91
2022-12-22T07:56:52.614Z,8.94
2022-12-22T07:59:19.296Z,8.82
2022-12-22T08:01:46.918Z,8.77
2022-12-22T08:04:14.911Z,8.89
2022-12-22T08:06:42.020Z,8.89
2022-12-22T08:09:10.189Z,8.93
2022-12-22T08:11:36.649Z,8.77
2022-12-22T08:14:03.352Z,8.98
2022-12-22T08:16:29.989Z,9.04
2022-12-22T08:18:56.966Z,8.69
2022-12-22T08:21:23.781Z,8.50
2022-12-22T08:23:50.432Z,8.93
2022-12-22T08:26:37.098Z,8.78
2022-12-22T08:29:15.845Z,9.10
2022-12-22T08:31:44.307Z,8.96
2022-12-22T08:34:14.378Z,9.10
2022-12-22T08:36:46.449Z,8.88
2022-12-22T08:39:14.308Z,8.77
2022-12-22T08:41:50.001Z,8.74
2022-12-22T08:44:22.071Z,8.87
2022-12-22T08:46:49.195Z,9.18
2022-12-22T08:49:16.322Z,8.88
2022-12-22T08:51:43.165Z,9.26
2022-12-22T08:54:09.798Z,9.24
2022-12-22T08:56:36.617Z,9.05
2022-12-22T08:59:05.442Z,9.29
2022-12-22T09:01:33.579Z,8.96
2022-12-22T09:04:00.326Z,8.96
2022-12-22T09:06:34.628Z,9.04
2022-12-22T09:09:07.584Z,8.58
2022-12-22T09:11:34.718Z,8.66
2022-12-22T09:14:02.728Z,9.14
2022-12-22T09:16:31.500Z,9.26
2022-12-22T09:18:58.202Z,9.27
2022-12-22T09:21:25.459Z,9.23
2022-12-22T09:23:52.074Z,9.28
2022-12-22T09:26:21.030Z,9.15
2022-12-22T09:28:50.546Z,9.09
2022-12-22T09:31:18.451Z,9.22
2022-12-22T09:33:44.970Z,8.98
2022-12-22T09:36:14.620Z,9.37
2022-12-22T09:38:41.917Z,9.32
2022-12-22T09:41:34.848Z,9.37
2022-12-22T09:44:06.975Z,9.42
2022-12-22T09:46:36.816Z,9.31
2022-12-22T09:49:06.069Z,9.53
2022-12-22T09:51:40.342Z,9.33
2022-12-22T09:54:09.677Z,9.46
2022-12-22T09:56:36.159Z,9.56
2022-12-22T09:59:02.659Z,9.32
2022-12-22T10:01:41.354Z,9.44
2022-12-22T10:04:20.115Z,9.48
2022-12-22T10:07:11.024Z,9.50
2022-12-22T10:09:52.906Z,9.19
2022-12-22T10:12:23.225Z,9.41
2022-12-22T10:14:52.219Z,8.93
2022-12-22T10:17:20.848Z,9.34
2022-12-22T10:19:49.731Z,9.21
2022-12-22T10:22:33.312Z,9.67
2022-12-22T10:25:02.413Z,9.74
2022-12-22T10:27:41.862Z,9.63
2022-12-22T10:30:24.740Z,9.54
2022-12-22T10:33:04.632Z,9.67
2022-12-22T10:35:53.639Z,9.84
2022-12-22T10:38:32.509Z,9.87
2022-12-22T10:41:05.053Z,9.65
2022-12-22T10:43:35.124Z,9.48
2022-12-22T10:46:03.423Z,9.75
2022-12-22T10:48:39.091Z,9.76
2022-12-22T10:51:08.586Z,9.92
2022-12-22T10:53:56.356Z,9.90
2022-12-22T10:56:32.172Z,10.05
2022-12-22T10:59:01.744Z,10.18
2022-12-22T11:01:31.799Z,10.42
2022-12-22T11:04:15.164Z,10.32
2022-12-22T11:06:45.290Z,10.91
2022-12-22T11:09:32.564Z,11.46
2022-12-22T11:12:05.814Z,12.64
2022-12-22T11:15:11.414Z,13.58
2022-12-22T11:17:59.367Z,14.50
2022-12-22T11:20:38.231Z,15.26
2022-12-22T11:23:22.631Z,13.52
2022-12-22T11:26:08.017Z,12.48
2022-12-22T11:29:03.231Z,11.56
2022-12-22T11:31:56.860Z,11.27
2022-12-22T11:34:38.896Z,11.14
2022-12-22T11:37:29.415Z,11.09
2022-12-22T11:40:17.484Z,11.27
2022-12-22T11:43:01.030Z,11.42
2022-12-22T11:45:47.191Z,11.53
2022-12-22T11:48:32.493Z,11.88
2022-12-22T11:51:14.161Z,11.86
2022-12-22T11:54:08.675Z,12.81
2022-12-22T11:56:40.856Z,12.11
2022-12-22T11:59:24.990Z,12.72
2022-12-22T12:02:10.108Z,12.63
2022-12-22T12:04:49.145Z,12.89
2022-12-22T12:07:28.063Z,12.37
2022-12-22T12:10:16.506Z,13.03
2022-12-22T12:12:55.272Z,12.58
2022-12-22T12:15:32.521Z,12.05
2022-12-22T12:18:37.335Z,11.57
2022-12-22T12:21:28.987Z,10.97
2022-12-22T12:24:10.264Z,10.86
2022-12-22T12:27:07.280Z,10.89
2022-12-22T12:29:48.709Z,10.73
2022-12-22T12:32:28.988Z,10.65
2022-12-22T12:35:15.866Z,10.35
2022-12-22T12:37:46.391Z,10.65
2022-12-22T12:40:33.827Z,10.09
2022-12-22T12:43:01.407Z,10.13
2022-12-22T12:45:35.712Z,10.22
2022-12-22T12:48:20.508Z,10.26
2022-12-22T12:50:48.176Z,10.04
2022-12-22T12:53:15.695Z,9.86
2022-12-22T12:55:43.067Z,10.25
2022-12-22T12:58:11.542Z,10.10
2022-12-22T13:00:45.047Z,10.26
2022-12-22T13:06:49.953Z,10.13
2022-12-22T13:09:50.528Z,10.16
2022-12-22T13:12:34.706Z,10.43
2022-12-22T13:15:02.008Z,10.56
2022-12-22T13:17:38.412Z,10.12
2022-12-22T13:20:06.542Z,10.78
2022-12-22T13:22:33.442Z,10.62
2022-12-22T13:25:02.355Z,10.69
2022-12-22T13:27:30.658Z,10.61
2022-12-22T13:29:58.482Z,11.02
2022-12-22T13:32:34.653Z,11.49
2022-12-22T13:37:58.507Z,10.96
2022-12-22T13:40:40.060Z,10.91
2022-12-22T13:43:17.994Z,11.18
2022-12-22T13:45:47.880Z,10.92
2022-12-22T13:48:25.827Z,10.84
2022-12-22T13:51:04.016Z,10.89
2022-12-22T13:54:07.242Z,10.57
2022-12-22T13:56:40.059Z,10.57
2022-12-22T13:59:21.885Z,10.69
2022-12-22T14:02:11.197Z,11.20
2022-12-22T14:04:41.819Z,11.14
2022-12-22T14:07:11.393Z,10.98
2022-12-22T14:09:37.930Z,10.20
2022-12-22T14:12:11.864Z,10.69
2022-12-22T14:14:41.176Z,10.23
2022-12-22T14:17:32.702Z,10.26
2022-12-22T14:20:01.682Z,9.90
2022-12-22T14:22:43.061Z,9.84
2022-12-22T14:25:14.574Z,9.61
2022-12-22T14:27:54.575Z,9.39
2022-12-22T14:30:24.389Z,9.13
2022-12-22T14:32:56.116Z,9.40
2022-12-22T14:35:22.770Z,9.44
2022-12-22T14:37:58.790Z,9.24
2022-12-22T14:40:40.552Z,9.02
2022-12-22T14:43:21.478Z,8.74
2022-12-22T14:45:50.129Z,9.15
2022-12-22T14:48:32.312Z,8.73
2022-12-22T14:50:59.337Z,8.62
2022-12-22T14:53:31.330Z,8.87
2022-12-22T14:55:57.843Z,8.87
2022-12-22T14:58:39.024Z,8.57
2022-12-22T15:01:23.195Z,8.65
2022-12-22T15:04:17.241Z,8.60
2022-12-22T15:06:47.882Z,8.42
2022-12-22T15:09:14.392Z,8.66
2022-12-22T15:11:51.513Z,8.61
2022-12-22T15:14:22.138Z,8.56
2022-12-22T15:16:49.059Z,8.33
2022-12-22T15:19:18.473Z,8.47
2022-12-22T15:21:45.067Z,8.15
2022-12-22T15:24:13.150Z,8.29
2022-12-22T15:26:39.721Z,8.33
2022-12-22T15:29:06.222Z,7.92
2022-12-22T15:31:33.112Z,8.21
2022-12-22T15:34:03.232Z,8.30
2022-12-22T15:36:29.924Z,7.99
2022-12-22T15:38:56.477Z,8.28
2022-12-22T15:41:23.229Z,8.30
2022-12-22T15:43:58.698Z,7.90
2022-12-22T15:46:25.738Z,7.92
2022-12-22T15:48:52.844Z,7.79
2022-12-22T15:51:29.031Z,8.19
2022-12-22T15:53:57.271Z,8.29
2022-12-22T15:56:25.675Z,8.23
2022-12-22T15:58:53.093Z,8.19
2022-12-22T16:01:19.643Z,8.13
2022-12-22T16:03:46.230Z,7.82
2022-12-22T16:06:15.421Z,7.83
2022-12-22T16:08:48.895Z,8.04
2022-12-22T16:11:16.256Z,8.04
2022-12-22T16:13:42.894Z,8.00
2022-12-22T16:16:09.713Z,7.96
2022-12-22T16:18:36.253Z,7.69
2022-12-22T16:21:15.607Z,8.06
2022-12-22T16:23:47.931Z,7.97
2022-12-22T16:26:17.858Z,7.68
2022-12-22T16:28:44.735Z,7.85
2022-12-22T16:31:24.150Z,7.62
2022-12-22T16:33:51.621Z,7.56
2022-12-22T16:36:18.456Z,7.73
2022-12-22T16:38:45.916Z,7.53
2022-12-22T16:41:22.799Z,7.85
2022-12-22T16:46:30.562Z,7.42
2022-12-22T16:48:59.996Z,7.90
2022-12-22T16:51:36.905Z,7.51
2022-12-22T16:54:03.526Z,7.82
2022-12-22T16:56:31.475Z,7.75
2022-12-22T16:58:58.286Z,7.82
2022-12-22T17:01:34.068Z,7.70
2022-12-22T17:04:09.331Z,7.38
2022-12-22T17:06:37.084Z,7.75
2022-12-22T17:09:07.209Z,7.82
2022-12-22T17:11:34.581Z,7.40
2022-12-22T17:14:29.020Z,7.87
2022-12-22T17:16:55.591Z,7.87
2022-12-22T17:19:22.072Z,7.46
2022-12-22T17:21:49.098Z,7.17
2022-12-22T17:24:24.331Z,7.86
2022-12-22T17:26:54.434Z,7.75
2022-12-22T17:29:23.727Z,7.44
2022-12-22T17:31:51.111Z,7.96
2022-12-22T17:34:19.046Z,7.56
2022-12-22T17:36:47.676Z,7.28
2022-12-22T17:39:16.666Z,7.77
2022-12-22T17:41:43.364Z,7.77
2022-12-22T17:44:16.480Z,7.78
2022-12-22T17:46:43.148Z,7.85
2022-12-22T17:49:09.668Z,7.95
2022-12-22T17:51:37.079Z,7.75
2022-12-22T17:54:04.113Z,7.68
2022-12-22T17:56:31.115Z,7.83
2022-12-22T17:59:31.061Z,7.59
2022-12-22T18:01:58.311Z,7.80
2022-12-22T18:04:25.092Z,7.74
2022-12-22T18:06:51.727Z,7.64
2022-12-22T18:09:24.391Z,7.45
2022-12-22T18:11:51.382Z,7.45
2022-12-22T18:14:23.545Z,7.12
2022-12-22T18:16:50.259Z,7.52
2022-12-22T18:19:16.963Z,7.62
2022-12-22T18:21:43.823Z,7.41
2022-12-22T18:24:19.565Z,7.46
2022-12-22T18:26:47.217Z,7.18
2022-12-22T18:29:15.791Z,7.26
2022-12-22T18:31:44.322Z,7.54
2022-12-22T18:34:12.583Z,7.43
2022-12-22T18:36:42.349Z,7.47
2022-12-22T18:39:17.450Z,7.41
2022-12-22T18:41:44.272Z,7.28
2022-12-22T18:44:18.753Z,7.51
2022-12-22T18:46:45.807Z,7.59
2022-12-22T18:49:12.712Z,7.02
2022-12-22T18:51:39.229Z,7.07
2022-12-22T18:54:21.282Z,7.54
2022-12-22T18:56:49.309Z,7.50
2022-12-22T18:59:24.562Z,7.59
2022-12-22T19:01:52.520Z,7.34
2022-12-22T19:04:19.398Z,7.45
2022-12-22T19:06:46.296Z,7.58
2022-12-22T19:09:15.477Z,7.24
2022-12-22T19:11:43.323Z,7.64
2022-12-22T19:14:20.678Z,7.70
2022-12-22T19:16:47.575Z,7.69
2022-12-22T19:19:19.214Z,7.76
2022-12-22T19:21:47.160Z,7.68
2022-12-22T19:24:13.881Z,7.55
2022-12-22T19:26:40.983Z,7.44
2022-12-22T19:29:09.948Z,7.70
2022-12-22T19:31:37.854Z,7.45
2022-12-22T19:34:07.049Z,7.62
2022-12-22T19:36:34.729Z,7.81
2022-12-22T19:39:05.050Z,7.84
2022-12-22T19:41:52.526Z,7.67
2022-12-22T19:44:30.695Z,7.35
2022-12-22T19:47:01.696Z,7.34
2022-12-22T19:49:29.298Z,7.64
2022-12-22T19:51:57.041Z,7.50
2022-12-22T19:54:24.188Z,7.77
2022-12-22T19:56:55.696Z,7.63
2022-12-22T19:59:39.024Z,7.65
2022-12-22T20:02:35.391Z,7.73
2022-12-22T20:05:02.138Z,7.71
2022-12-22T20:07:30.592Z,7.53
2022-12-22T20:09:57.120Z,7.85
2022-12-22T20:12:31.529Z,7.87
2022-12-22T20:14:58.839Z,7.61
2022-12-22T20:17:25.458Z,7.41
2022-12-22T20:19:52.033Z,7.99
2022-12-22T20:22:21.470Z,7.89
2022-12-22T20:24:49.965Z,7.93
2022-12-22T20:27:22.047Z,7.70
2022-12-22T20:29:48.683Z,7.82
2022-12-22T20:32:15.876Z,7.90
2022-12-22T20:34:43.248Z,7.73
2022-12-22T20:37:15.101Z,7.91
2022-12-22T20:39:42.513Z,7.90
2022-12-22T20:42:18.997Z,7.87
2022-12-22T20:45:02.369Z,7.79
2022-12-22T20:47:30.182Z,7.85
2022-12-22T20:49:56.696Z,7.73
2022-12-22T20:52:23.164Z,7.91
2022-12-22T20:54:49.720Z,7.66
2022-12-22T20:57:17.016Z,7.52
2022-12-22T20:59:44.550Z,8.04
2022-12-22T21:02:22.177Z,7.57
2022-12-22T21:04:49.955Z,7.95
2022-12-22T21:07:16.701Z,7.97
2022-12-22T21:09:43.400Z,7.89
2022-12-22T21:12:09.942Z,7.75
2022-12-22T21:14:36.416Z,7.99
2022-12-22T21:17:03.229Z,7.84
2022-12-22T21:19:29.803Z,7.87
2022-12-22T21:21:56.325Z,7.76
2022-12-22T21:24:22.866Z,7.61
2022-12-22T21:26:53.250Z,7.77
2022-12-22T21:29:24.085Z,7.62
2022-12-22T21:31:51.029Z,7.79
2022-12-22T21:34:17.740Z,7.89
2022-12-22T21:36:46.656Z,7.68
2022-12-22T21:39:26.672Z,7.87
2022-12-22T21:42:04.515Z,7.68
2022-12-22T21:44:33.890Z,7.86
2022-12-22T21:47:01.265Z,7.97
2022-12-22T21:49:30.204Z,7.84
2022-12-22T21:51:56.973Z,7.82
2022-12-22T21:54:24.921Z,7.60
2022-12-22T21:56:53.499Z,7.71
2022-12-22T21:59:20.683Z,7.56
2022-12-22T22:01:47.338Z,7.82
2022-12-22T22:04:14.553Z,7.87
2022-12-22T22:06:41.204Z,7.87
2022-12-22T22:09:07.788Z,7.52
2022-12-22T22:11:54.349Z,7.86
2022-12-22T22:14:21.292Z,7.78
2022-12-22T22:16:48.202Z,7.41
2022-12-22T22:19:14.810Z,7.57
2022-12-22T22:21:41.312Z,7.82
2022-12-22T22:24:07.799Z,7.82
2022-12-22T22:26:34.299Z,7.74
2022-12-22T22:29:00.805Z,7.85
2022-12-22T22:31:27.367Z,7.65
2022-12-22T22:33:54.032Z,7.76
2022-12-22T22:36:20.527Z,7.79
2022-12-22T22:38:51.009Z,7.77
2022-12-22T22:41:17.639Z,7.55
2022-12-22T22:43:44.208Z,7.42
2022-12-22T22:46:10.777Z,7.32
2022-12-22T22:48:37.401Z,7.54
2022-12-22T22:51:03.963Z,7.40
2022-12-22T22:53:30.890Z,7.48
2022-12-22T22:56:02.903Z,7.59
2022-12-22T22:58:29.841Z,7.53
2022-12-22T23:01:03.403Z,7.52
2022-12-22T23:03:30.852Z,7.45
2022-12-22T23:06:06.399Z,7.37
2022-12-22T23:08:33.549Z,7.21
2022-12-22T23:11:01.260Z,7.26
2022-12-22T23:13:28.524Z,7.11
2022-12-22T23:15:57.356Z,7.33
2022-12-22T23:18:24.278Z,7.27
2022-12-22T23:20:51.119Z,7.35
2022-12-22T23:23:18.327Z,7.13
2022-12-22T23:25:46.868Z,7.37
2022-12-22T23:28:13.453Z,7.01
2022-12-22T23:30:41.785Z,7.30
2022-12-22T23:33:08.638Z,7.46
2022-12-22T23:35:39.839Z,7.23
2022-12-22T23:38:09.803Z,7.35
2022-12-22T23:40:54.570Z,7.28
2022-12-22T23:43:21.676Z,7.31
2022-12-22T23:45:48.158Z,7.20
2022-12-22T23:48:15.001Z,6.88
2022-12-22T23:50:41.759Z,7.16
2022-12-22T23:53:08.340Z,7.20
2022-12-22T23:55:34.833Z,7.15
2022-12-22T23:58:01.356Z,7.02
